sensor_id;sensor_type;location;lat;lon;timestamp;temperature;humidity
65692;DHT22;52411;52.716;6.696;2023-08-21T00:02:11;16.60;99.90
65692;DHT22;52411;52.716;6.696;2023-08-21T00:04:37;16.50;99.90
65692;DHT22;52411;52.716;6.696;2023-08-21T00:07:03;16.60;99.90
65692;DHT22;52411;52.716;6.696;2023-08-21T00:14:39;16.60;99.90
65692;DHT22;52411;52.716;6.696;2023-08-21T00:17:05;16.50;99.90
65692;DHT22;52411;52.716;6.696;2023-08-21T00:19:31;16.50;99.90
65692;DHT22;52411;52.716;6.696;2023-08-21T00:29:43;16.30;99.90
65692;DHT22;52411;52.716;6.696;2023-08-21T00:32:09;16.30;99.90
65692;DHT22;52411;52.716;6.696;2023-08-21T00:34:34;16.10;99.90
65692;DHT22;52411;52.716;6.696;2023-08-21T00:37:00;16.10;99.90
65692;DHT22;52411;52.716;6.696;2023-08-21T00:39:26;16.10;99.90
65692;DHT22;52411;52.716;6.696;2023-08-21T00:47:11;16.10;99.90
65692;DHT22;52411;52.716;6.696;2023-08-21T00:49:37;16.00;99.90
65692;DHT22;52411;52.716;6.696;2023-08-21T00:52:06;15.90;99.90
65692;DHT22;52411;52.716;6.696;2023-08-21T00:54:33;15.80;99.90
65692;DHT22;52411;52.716;6.696;2023-08-21T00:56:59;15.70;99.90
65692;DHT22;52411;52.716;6.696;2023-08-21T01:04:36;15.80;99.90
65692;DHT22;52411;52.716;6.696;2023-08-21T01:07:02;15.80;99.90
65692;DHT22;52411;52.716;6.696;2023-08-21T01:12:41;15.70;99.90
65692;DHT22;52411;52.716;6.696;2023-08-21T01:15:12;15.50;99.90
65692;DHT22;52411;52.716;6.696;2023-08-21T01:17:39;15.50;99.90
65692;DHT22;52411;52.716;6.696;2023-08-21T01:20:07;15.50;99.90
65692;DHT22;52411;52.716;6.696;2023-08-21T01:22:37;15.30;99.90
65692;DHT22;52411;52.716;6.696;2023-08-21T01:25:04;15.30;99.90
65692;DHT22;52411;52.716;6.696;2023-08-21T01:27:31;15.30;99.90
65692;DHT22;52411;52.716;6.696;2023-08-21T01:29:57;15.30;99.90
65692;DHT22;52411;52.716;6.696;2023-08-21T01:32:34;15.20;99.90
65692;DHT22;52411;52.716;6.696;2023-08-21T01:35:02;15.00;99.90
65692;DHT22;52411;52.716;6.696;2023-08-21T01:37:30;14.70;99.90
65692;DHT22;52411;52.716;6.696;2023-08-21T01:39:58;14.60;99.90
65692;DHT22;52411;52.716;6.696;2023-08-21T01:42:24;14.70;99.90
65692;DHT22;52411;52.716;6.696;2023-08-21T01:44:49;14.80;99.90
65692;DHT22;52411;52.716;6.696;2023-08-21T01:47:15;14.80;99.90
65692;DHT22;52411;52.716;6.696;2023-08-21T01:49:41;14.90;99.90
65692;DHT22;52411;52.716;6.696;2023-08-21T01:52:06;14.90;99.90
65692;DHT22;52411;52.716;6.696;2023-08-21T01:54:32;14.90;99.90
65692;DHT22;52411;52.716;6.696;2023-08-21T01:56:57;14.80;99.90
65692;DHT22;52411;52.716;6.696;2023-08-21T01:59:24;14.80;99.90
65692;DHT22;52411;52.716;6.696;2023-08-21T02:01:49;14.70;99.90
65692;DHT22;52411;52.716;6.696;2023-08-21T02:04:15;14.70;99.90
65692;DHT22;52411;52.716;6.696;2023-08-21T02:06:41;14.70;99.90
65692;DHT22;52411;52.716;6.696;2023-08-21T02:09:06;14.80;99.90
65692;DHT22;52411;52.716;6.696;2023-08-21T02:11:32;14.70;99.90
65692;DHT22;52411;52.716;6.696;2023-08-21T02:13:58;14.80;99.90
65692;DHT22;52411;52.716;6.696;2023-08-21T02:16:23;14.80;99.90
65692;DHT22;52411;52.716;6.696;2023-08-21T02:18:49;14.80;99.90
65692;DHT22;52411;52.716;6.696;2023-08-21T02:21:15;14.70;99.90
65692;DHT22;52411;52.716;6.696;2023-08-21T02:23:40;14.60;99.90
65692;DHT22;52411;52.716;6.696;2023-08-21T02:26:06;14.60;99.90
65692;DHT22;52411;52.716;6.696;2023-08-21T02:28:31;14.60;99.90
65692;DHT22;52411;52.716;6.696;2023-08-21T02:30:57;14.60;99.90
65692;DHT22;52411;52.716;6.696;2023-08-21T02:33:23;14.50;99.90
65692;DHT22;52411;52.716;6.696;2023-08-21T02:35:48;14.30;99.90
65692;DHT22;52411;52.716;6.696;2023-08-21T02:38:14;14.30;99.90
65692;DHT22;52411;52.716;6.696;2023-08-21T02:40:39;14.30;99.90
65692;DHT22;52411;52.716;6.696;2023-08-21T02:43:05;14.30;99.90
65692;DHT22;52411;52.716;6.696;2023-08-21T02:45:31;14.30;99.90
65692;DHT22;52411;52.716;6.696;2023-08-21T02:47:56;14.30;99.90
65692;DHT22;52411;52.716;6.696;2023-08-21T02:50:22;14.30;99.90
65692;DHT22;52411;52.716;6.696;2023-08-21T02:52:48;14.40;99.90
65692;DHT22;52411;52.716;6.696;2023-08-21T02:55:13;14.30;99.90
65692;DHT22;52411;52.716;6.696;2023-08-21T02:57:39;14.40;99.90
65692;DHT22;52411;52.716;6.696;2023-08-21T03:00:05;14.40;99.90
65692;DHT22;52411;52.716;6.696;2023-08-21T03:02:33;14.40;99.90
65692;DHT22;52411;52.716;6.696;2023-08-21T03:04:59;14.30;99.90
65692;DHT22;52411;52.716;6.696;2023-08-21T03:07:24;14.30;99.90
65692;DHT22;52411;52.716;6.696;2023-08-21T03:09:50;14.10;99.90
65692;DHT22;52411;52.716;6.696;2023-08-21T03:12:16;14.00;99.90
65692;DHT22;52411;52.716;6.696;2023-08-21T03:14:41;13.90;99.90
65692;DHT22;52411;52.716;6.696;2023-08-21T03:17:07;13.70;99.90
65692;DHT22;52411;52.716;6.696;2023-08-21T03:19:33;13.80;99.90
65692;DHT22;52411;52.716;6.696;2023-08-21T03:21:59;13.90;99.90
65692;DHT22;52411;52.716;6.696;2023-08-21T03:24:24;14.00;99.90
65692;DHT22;52411;52.716;6.696;2023-08-21T03:26:50;14.00;99.90
65692;DHT22;52411;52.716;6.696;2023-08-21T03:29:15;14.00;99.90
65692;DHT22;52411;52.716;6.696;2023-08-21T03:31:41;14.00;99.90
65692;DHT22;52411;52.716;6.696;2023-08-21T03:34:07;14.00;99.90
65692;DHT22;52411;52.716;6.696;2023-08-21T03:36:33;14.00;99.90
65692;DHT22;52411;52.716;6.696;2023-08-21T03:39:00;14.00;99.90
65692;DHT22;52411;52.716;6.696;2023-08-21T03:41:27;14.00;99.90
65692;DHT22;52411;52.716;6.696;2023-08-21T03:43:53;13.90;99.90
65692;DHT22;52411;52.716;6.696;2023-08-21T03:46:18;13.90;99.90
65692;DHT22;52411;52.716;6.696;2023-08-21T03:48:44;13.90;99.90
65692;DHT22;52411;52.716;6.696;2023-08-21T03:51:10;13.90;99.90
65692;DHT22;52411;52.716;6.696;2023-08-21T03:53:35;13.80;99.90
65692;DHT22;52411;52.716;6.696;2023-08-21T03:56:01;13.80;99.90
65692;DHT22;52411;52.716;6.696;2023-08-21T03:58:26;13.80;99.90
65692;DHT22;52411;52.716;6.696;2023-08-21T04:00:53;13.80;99.90
65692;DHT22;52411;52.716;6.696;2023-08-21T04:03:19;13.60;99.90
65692;DHT22;52411;52.716;6.696;2023-08-21T04:05:44;13.50;99.90
65692;DHT22;52411;52.716;6.696;2023-08-21T04:08:10;13.50;99.90
65692;DHT22;52411;52.716;6.696;2023-08-21T04:10:35;13.60;99.90
65692;DHT22;52411;52.716;6.696;2023-08-21T04:13:01;13.50;99.90
65692;DHT22;52411;52.716;6.696;2023-08-21T04:15:27;13.50;99.90
65692;DHT22;52411;52.716;6.696;2023-08-21T04:17:52;13.40;99.90
65692;DHT22;52411;52.716;6.696;2023-08-21T04:20:20;13.40;99.90
65692;DHT22;52411;52.716;6.696;2023-08-21T04:22:47;13.40;99.90
65692;DHT22;52411;52.716;6.696;2023-08-21T04:25:13;13.40;99.90
65692;DHT22;52411;52.716;6.696;2023-08-21T04:27:39;13.40;99.90
65692;DHT22;52411;52.716;6.696;2023-08-21T04:30:05;13.30;99.90
65692;DHT22;52411;52.716;6.696;2023-08-21T04:32:31;13.20;99.90
65692;DHT22;52411;52.716;6.696;2023-08-21T04:34:57;13.20;99.90
65692;DHT22;52411;52.716;6.696;2023-08-21T04:37:23;13.10;99.90
65692;DHT22;52411;52.716;6.696;2023-08-21T04:39:55;13.10;99.90
65692;DHT22;52411;52.716;6.696;2023-08-21T04:42:21;13.20;99.90
65692;DHT22;52411;52.716;6.696;2023-08-21T04:44:47;13.20;99.90
65692;DHT22;52411;52.716;6.696;2023-08-21T04:47:22;13.20;99.90
65692;DHT22;52411;52.716;6.696;2023-08-21T04:49:52;13.20;99.90
65692;DHT22;52411;52.716;6.696;2023-08-21T04:52:18;13.20;99.90
65692;DHT22;52411;52.716;6.696;2023-08-21T04:54:43;13.30;99.90
65692;DHT22;52411;52.716;6.696;2023-08-21T04:57:09;13.30;99.90
65692;DHT22;52411;52.716;6.696;2023-08-21T04:59:35;13.30;99.90
65692;DHT22;52411;52.716;6.696;2023-08-21T05:02:01;13.40;99.90
65692;DHT22;52411;52.716;6.696;2023-08-21T05:04:27;13.40;99.90
65692;DHT22;52411;52.716;6.696;2023-08-21T05:06:53;13.50;99.90
65692;DHT22;52411;52.716;6.696;2023-08-21T05:09:18;13.40;99.90
65692;DHT22;52411;52.716;6.696;2023-08-21T05:11:44;13.30;99.90
65692;DHT22;52411;52.716;6.696;2023-08-21T05:14:10;13.40;99.90
65692;DHT22;52411;52.716;6.696;2023-08-21T05:16:35;13.50;99.90
65692;DHT22;52411;52.716;6.696;2023-08-21T05:19:01;13.50;99.90
65692;DHT22;52411;52.716;6.696;2023-08-21T05:21:27;13.50;99.90
65692;DHT22;52411;52.716;6.696;2023-08-21T05:23:53;13.60;99.90
65692;DHT22;52411;52.716;6.696;2023-08-21T05:26:19;13.60;99.90
65692;DHT22;52411;52.716;6.696;2023-08-21T05:28:45;13.60;99.90
65692;DHT22;52411;52.716;6.696;2023-08-21T05:31:11;13.60;99.90
65692;DHT22;52411;52.716;6.696;2023-08-21T05:33:37;13.60;99.90
65692;DHT22;52411;52.716;6.696;2023-08-21T05:36:03;13.70;99.90
65692;DHT22;52411;52.716;6.696;2023-08-21T05:38:28;13.90;99.90
65692;DHT22;52411;52.716;6.696;2023-08-21T05:40:57;14.00;99.90
65692;DHT22;52411;52.716;6.696;2023-08-21T05:43:26;14.10;99.90
65692;DHT22;52411;52.716;6.696;2023-08-21T05:45:52;14.10;99.90
65692;DHT22;52411;52.716;6.696;2023-08-21T05:48:20;14.20;99.90
65692;DHT22;52411;52.716;6.696;2023-08-21T05:50:51;14.30;99.90
65692;DHT22;52411;52.716;6.696;2023-08-21T05:53:17;14.50;99.90
65692;DHT22;52411;52.716;6.696;2023-08-21T05:55:43;14.60;99.90
65692;DHT22;52411;52.716;6.696;2023-08-21T05:58:08;14.70;99.90
65692;DHT22;52411;52.716;6.696;2023-08-21T06:00:34;14.80;99.90
65692;DHT22;52411;52.716;6.696;2023-08-21T06:03:00;14.90;99.90
65692;DHT22;52411;52.716;6.696;2023-08-21T06:05:26;15.00;99.90
65692;DHT22;52411;52.716;6.696;2023-08-21T06:07:52;15.10;99.90
65692;DHT22;52411;52.716;6.696;2023-08-21T06:10:17;15.30;99.90
65692;DHT22;52411;52.716;6.696;2023-08-21T06:12:43;15.40;99.90
65692;DHT22;52411;52.716;6.696;2023-08-21T06:15:09;15.60;99.90
65692;DHT22;52411;52.716;6.696;2023-08-21T06:17:36;15.70;99.90
65692;DHT22;52411;52.716;6.696;2023-08-21T06:20:02;15.80;99.90
65692;DHT22;52411;52.716;6.696;2023-08-21T06:22:31;15.90;99.90
65692;DHT22;52411;52.716;6.696;2023-08-21T06:24:56;16.00;99.90
65692;DHT22;52411;52.716;6.696;2023-08-21T06:27:22;16.00;99.90
65692;DHT22;52411;52.716;6.696;2023-08-21T06:29:47;16.10;99.90
65692;DHT22;52411;52.716;6.696;2023-08-21T06:32:13;16.30;99.90
65692;DHT22;52411;52.716;6.696;2023-08-21T06:34:39;16.40;99.90
65692;DHT22;52411;52.716;6.696;2023-08-21T06:37:04;16.50;99.90
65692;DHT22;52411;52.716;6.696;2023-08-21T06:39:31;16.60;99.90
65692;DHT22;52411;52.716;6.696;2023-08-21T06:41:56;16.70;99.90
65692;DHT22;52411;52.716;6.696;2023-08-21T06:44:22;16.80;99.90
65692;DHT22;52411;52.716;6.696;2023-08-21T06:46:48;16.90;99.90
65692;DHT22;52411;52.716;6.696;2023-08-21T06:49:13;17.00;99.90
65692;DHT22;52411;52.716;6.696;2023-08-21T06:51:39;17.10;99.90
65692;DHT22;52411;52.716;6.696;2023-08-21T06:54:05;17.20;99.90
65692;DHT22;52411;52.716;6.696;2023-08-21T06:56:31;17.40;99.90
65692;DHT22;52411;52.716;6.696;2023-08-21T06:58:57;17.40;99.90
65692;DHT22;52411;52.716;6.696;2023-08-21T07:01:22;17.50;99.90
65692;DHT22;52411;52.716;6.696;2023-08-21T07:03:48;17.60;99.90
65692;DHT22;52411;52.716;6.696;2023-08-21T07:06:13;17.70;99.90
65692;DHT22;52411;52.716;6.696;2023-08-21T07:08:39;17.80;99.90
65692;DHT22;52411;52.716;6.696;2023-08-21T07:11:06;17.80;99.90
65692;DHT22;52411;52.716;6.696;2023-08-21T07:13:33;17.90;99.90
65692;DHT22;52411;52.716;6.696;2023-08-21T07:15:59;18.00;99.90
65692;DHT22;52411;52.716;6.696;2023-08-21T07:18:28;18.00;99.90
65692;DHT22;52411;52.716;6.696;2023-08-21T07:20:54;18.10;99.90
65692;DHT22;52411;52.716;6.696;2023-08-21T07:23:19;18.20;99.90
65692;DHT22;52411;52.716;6.696;2023-08-21T07:25:45;18.30;99.90
65692;DHT22;52411;52.716;6.696;2023-08-21T07:28:11;18.30;99.90
65692;DHT22;52411;52.716;6.696;2023-08-21T07:30:39;18.40;99.90
65692;DHT22;52411;52.716;6.696;2023-08-21T07:33:05;18.50;99.90
65692;DHT22;52411;52.716;6.696;2023-08-21T07:35:32;18.60;99.90
65692;DHT22;52411;52.716;6.696;2023-08-21T07:37:57;18.70;99.90
65692;DHT22;52411;52.716;6.696;2023-08-21T07:40:23;18.80;99.90
65692;DHT22;52411;52.716;6.696;2023-08-21T07:42:49;18.80;99.90
65692;DHT22;52411;52.716;6.696;2023-08-21T07:45:15;19.00;99.90
65692;DHT22;52411;52.716;6.696;2023-08-21T07:47:40;19.10;99.90
65692;DHT22;52411;52.716;6.696;2023-08-21T07:50:06;19.20;99.90
65692;DHT22;52411;52.716;6.696;2023-08-21T07:52:33;19.40;99.90
65692;DHT22;52411;52.716;6.696;2023-08-21T07:54:59;19.50;99.90
65692;DHT22;52411;52.716;6.696;2023-08-21T07:57:26;19.50;99.90
65692;DHT22;52411;52.716;6.696;2023-08-21T07:59:52;19.60;99.90
65692;DHT22;52411;52.716;6.696;2023-08-21T08:02:17;19.60;99.90
65692;DHT22;52411;52.716;6.696;2023-08-21T08:04:43;19.70;99.90
65692;DHT22;52411;52.716;6.696;2023-08-21T08:07:09;19.70;99.90
65692;DHT22;52411;52.716;6.696;2023-08-21T08:09:35;19.80;99.90
65692;DHT22;52411;52.716;6.696;2023-08-21T08:12:01;20.00;99.90
65692;DHT22;52411;52.716;6.696;2023-08-21T08:14:27;20.20;99.90
65692;DHT22;52411;52.716;6.696;2023-08-21T08:16:52;20.20;99.90
65692;DHT22;52411;52.716;6.696;2023-08-21T08:19:18;20.20;99.90
65692;DHT22;52411;52.716;6.696;2023-08-21T08:21:43;20.30;99.90
65692;DHT22;52411;52.716;6.696;2023-08-21T08:24:09;20.40;99.90
65692;DHT22;52411;52.716;6.696;2023-08-21T08:26:35;20.30;99.90
65692;DHT22;52411;52.716;6.696;2023-08-21T08:29:00;20.40;99.90
65692;DHT22;52411;52.716;6.696;2023-08-21T08:31:26;20.40;99.90
65692;DHT22;52411;52.716;6.696;2023-08-21T08:33:53;20.40;99.90
65692;DHT22;52411;52.716;6.696;2023-08-21T08:36:19;20.40;99.90
65692;DHT22;52411;52.716;6.696;2023-08-21T08:38:45;20.60;99.90
65692;DHT22;52411;52.716;6.696;2023-08-21T08:41:19;20.60;99.90
65692;DHT22;52411;52.716;6.696;2023-08-21T08:43:50;20.70;99.90
65692;DHT22;52411;52.716;6.696;2023-08-21T08:46:17;20.70;99.90
65692;DHT22;52411;52.716;6.696;2023-08-21T08:48:43;20.80;99.90
65692;DHT22;52411;52.716;6.696;2023-08-21T08:51:09;20.90;99.90
65692;DHT22;52411;52.716;6.696;2023-08-21T08:53:36;21.00;99.90
65692;DHT22;52411;52.716;6.696;2023-08-21T08:56:02;21.10;99.90
65692;DHT22;52411;52.716;6.696;2023-08-21T08:58:29;21.10;99.90
65692;DHT22;52411;52.716;6.696;2023-08-21T09:00:54;21.20;99.90
65692;DHT22;52411;52.716;6.696;2023-08-21T09:03:20;21.20;99.90
65692;DHT22;52411;52.716;6.696;2023-08-21T09:05:47;21.20;99.90
65692;DHT22;52411;52.716;6.696;2023-08-21T09:08:14;21.30;99.90
65692;DHT22;52411;52.716;6.696;2023-08-21T09:10:41;21.40;99.90
65692;DHT22;52411;52.716;6.696;2023-08-21T09:13:18;21.40;99.90
65692;DHT22;52411;52.716;6.696;2023-08-21T09:15:46;21.60;99.90
65692;DHT22;52411;52.716;6.696;2023-08-21T09:18:13;21.70;99.90
65692;DHT22;52411;52.716;6.696;2023-08-21T09:20:40;21.70;99.90
65692;DHT22;52411;52.716;6.696;2023-08-21T09:23:06;21.90;99.90
65692;DHT22;52411;52.716;6.696;2023-08-21T09:25:37;22.10;99.90
65692;DHT22;52411;52.716;6.696;2023-08-21T09:28:06;22.30;99.90
65692;DHT22;52411;52.716;6.696;2023-08-21T09:30:47;22.40;99.90
65692;DHT22;52411;52.716;6.696;2023-08-21T09:33:13;22.50;99.90
65692;DHT22;52411;52.716;6.696;2023-08-21T09:35:39;22.50;99.90
65692;DHT22;52411;52.716;6.696;2023-08-21T09:38:08;22.50;99.90
65692;DHT22;52411;52.716;6.696;2023-08-21T09:40:33;22.50;99.90
65692;DHT22;52411;52.716;6.696;2023-08-21T09:42:59;22.50;99.90
65692;DHT22;52411;52.716;6.696;2023-08-21T09:45:27;22.50;99.90
65692;DHT22;52411;52.716;6.696;2023-08-21T09:47:53;22.50;99.90
65692;DHT22;52411;52.716;6.696;2023-08-21T09:50:21;22.50;99.90
65692;DHT22;52411;52.716;6.696;2023-08-21T09:52:47;22.50;99.90
65692;DHT22;52411;52.716;6.696;2023-08-21T09:55:14;22.60;99.90
65692;DHT22;52411;52.716;6.696;2023-08-21T09:57:41;22.50;99.90
65692;DHT22;52411;52.716;6.696;2023-08-21T10:00:08;22.60;99.90
65692;DHT22;52411;52.716;6.696;2023-08-21T10:02:42;22.70;99.90
65692;DHT22;52411;52.716;6.696;2023-08-21T10:05:11;22.80;99.90
65692;DHT22;52411;52.716;6.696;2023-08-21T10:07:38;22.80;99.90
65692;DHT22;52411;52.716;6.696;2023-08-21T10:10:05;22.90;99.90
65692;DHT22;52411;52.716;6.696;2023-08-21T10:12:31;23.00;99.90
65692;DHT22;52411;52.716;6.696;2023-08-21T10:14:56;23.00;99.90
65692;DHT22;52411;52.716;6.696;2023-08-21T10:17:22;23.10;99.90
65692;DHT22;52411;52.716;6.696;2023-08-21T10:19:51;23.10;99.90
65692;DHT22;52411;52.716;6.696;2023-08-21T10:22:44;23.20;99.90
65692;DHT22;52411;52.716;6.696;2023-08-21T10:25:23;23.30;99.90
65692;DHT22;52411;52.716;6.696;2023-08-21T10:28:00;23.40;99.90
65692;DHT22;52411;52.716;6.696;2023-08-21T10:30:29;23.30;99.90
65692;DHT22;52411;52.716;6.696;2023-08-21T10:32:57;23.30;99.90
65692;DHT22;52411;52.716;6.696;2023-08-21T10:35:31;23.50;99.90
65692;DHT22;52411;52.716;6.696;2023-08-21T10:38:07;23.50;99.90
65692;DHT22;52411;52.716;6.696;2023-08-21T10:40:34;23.60;99.90
65692;DHT22;52411;52.716;6.696;2023-08-21T10:43:01;23.70;99.90
65692;DHT22;52411;52.716;6.696;2023-08-21T10:45:29;23.80;99.90
65692;DHT22;52411;52.716;6.696;2023-08-21T10:48:01;24.00;99.90
65692;DHT22;52411;52.716;6.696;2023-08-21T10:50:27;24.00;99.90
65692;DHT22;52411;52.716;6.696;2023-08-21T10:52:53;24.00;99.90
65692;DHT22;52411;52.716;6.696;2023-08-21T10:55:20;24.00;99.90
65692;DHT22;52411;52.716;6.696;2023-08-21T10:57:49;24.10;99.90
65692;DHT22;52411;52.716;6.696;2023-08-21T11:00:17;24.10;99.90
65692;DHT22;52411;52.716;6.696;2023-08-21T11:02:45;24.10;99.90
65692;DHT22;52411;52.716;6.696;2023-08-21T11:05:12;24.20;99.90
65692;DHT22;52411;52.716;6.696;2023-08-21T11:10:07;24.20;99.90
65692;DHT22;52411;52.716;6.696;2023-08-21T11:12:34;24.30;99.90
65692;DHT22;52411;52.716;6.696;2023-08-21T11:14:59;24.40;99.90
65692;DHT22;52411;52.716;6.696;2023-08-21T11:17:25;24.40;99.90
65692;DHT22;52411;52.716;6.696;2023-08-21T11:19:51;24.50;99.90
65692;DHT22;52411;52.716;6.696;2023-08-21T11:22:17;24.60;99.90
65692;DHT22;52411;52.716;6.696;2023-08-21T11:24:44;24.70;99.90
65692;DHT22;52411;52.716;6.696;2023-08-21T11:27:12;24.80;99.90
65692;DHT22;52411;52.716;6.696;2023-08-21T11:29:44;24.90;99.90
65692;DHT22;52411;52.716;6.696;2023-08-21T11:32:21;24.80;99.90
65692;DHT22;52411;52.716;6.696;2023-08-21T11:34:53;24.80;98.50
65692;DHT22;52411;52.716;6.696;2023-08-21T11:37:23;24.90;99.90
65692;DHT22;52411;52.716;6.696;2023-08-21T11:39:51;24.90;99.90
65692;DHT22;52411;52.716;6.696;2023-08-21T11:42:20;25.00;99.90
65692;DHT22;52411;52.716;6.696;2023-08-21T11:44:52;25.00;99.70
65692;DHT22;52411;52.716;6.696;2023-08-21T11:47:20;25.10;99.60
65692;DHT22;52411;52.716;6.696;2023-08-21T11:49:47;25.30;99.90
65692;DHT22;52411;52.716;6.696;2023-08-21T11:52:17;25.30;99.20
65692;DHT22;52411;52.716;6.696;2023-08-21T11:54:50;25.30;99.00
65692;DHT22;52411;52.716;6.696;2023-08-21T11:57:16;25.30;98.90
65692;DHT22;52411;52.716;6.696;2023-08-21T11:59:42;25.30;99.00
65692;DHT22;52411;52.716;6.696;2023-08-21T12:04:35;25.40;98.50
65692;DHT22;52411;52.716;6.696;2023-08-21T12:07:00;25.50;98.30
65692;DHT22;52411;52.716;6.696;2023-08-21T12:09:26;25.40;98.80
65692;DHT22;52411;52.716;6.696;2023-08-21T12:11:52;25.30;99.00
65692;DHT22;52411;52.716;6.696;2023-08-21T12:14:18;25.00;98.90
65692;DHT22;52411;52.716;6.696;2023-08-21T12:16:43;24.90;99.40
65692;DHT22;52411;52.716;6.696;2023-08-21T12:19:09;24.70;99.50
65692;DHT22;52411;52.716;6.696;2023-08-21T12:21:37;24.80;99.80
65692;DHT22;52411;52.716;6.696;2023-08-21T12:24:04;25.00;99.60
65692;DHT22;52411;52.716;6.696;2023-08-21T12:26:30;25.30;99.90
65692;DHT22;52411;52.716;6.696;2023-08-21T12:28:56;25.50;99.20
65692;DHT22;52411;52.716;6.696;2023-08-21T12:31:22;25.60;98.60
65692;DHT22;52411;52.716;6.696;2023-08-21T12:33:47;25.60;98.20
65692;DHT22;52411;52.716;6.696;2023-08-21T12:36:13;25.70;97.80
65692;DHT22;52411;52.716;6.696;2023-08-21T12:38:38;25.80;97.70
65692;DHT22;52411;52.716;6.696;2023-08-21T12:41:04;26.00;97.50
65692;DHT22;52411;52.716;6.696;2023-08-21T12:43:30;26.00;97.00
65692;DHT22;52411;52.716;6.696;2023-08-21T12:45:56;26.00;97.20
65692;DHT22;52411;52.716;6.696;2023-08-21T12:48:22;26.10;96.40
65692;DHT22;52411;52.716;6.696;2023-08-21T12:50:48;26.10;95.90
65692;DHT22;52411;52.716;6.696;2023-08-21T12:53:13;26.10;95.00
65692;DHT22;52411;52.716;6.696;2023-08-21T12:55:39;26.20;95.60
65692;DHT22;52411;52.716;6.696;2023-08-21T12:58:04;26.30;95.20
65692;DHT22;52411;52.716;6.696;2023-08-21T13:00:31;26.40;95.50
65692;DHT22;52411;52.716;6.696;2023-08-21T13:02:57;26.40;94.80
65692;DHT22;52411;52.716;6.696;2023-08-21T13:05:23;25.90;94.60
65692;DHT22;52411;52.716;6.696;2023-08-21T13:07:49;25.70;94.40
65692;DHT22;52411;52.716;6.696;2023-08-21T13:10:15;25.80;94.40
65692;DHT22;52411;52.716;6.696;2023-08-21T13:12:40;26.00;94.40
65692;DHT22;52411;52.716;6.696;2023-08-21T13:15:06;26.20;94.50
65692;DHT22;52411;52.716;6.696;2023-08-21T13:17:34;26.30;94.40
65692;DHT22;52411;52.716;6.696;2023-08-21T13:20:00;26.00;94.70
65692;DHT22;52411;52.716;6.696;2023-08-21T13:22:26;26.30;94.60
65692;DHT22;52411;52.716;6.696;2023-08-21T13:24:51;26.60;94.40
65692;DHT22;52411;52.716;6.696;2023-08-21T13:27:17;26.80;94.00
65692;DHT22;52411;52.716;6.696;2023-08-21T13:29:43;27.00;93.80
65692;DHT22;52411;52.716;6.696;2023-08-21T13:32:08;27.20;93.60
65692;DHT22;52411;52.716;6.696;2023-08-21T13:34:34;27.10;93.20
65692;DHT22;52411;52.716;6.696;2023-08-21T13:37:00;26.90;92.70
65692;DHT22;52411;52.716;6.696;2023-08-21T13:39:25;26.50;93.00
65692;DHT22;52411;52.716;6.696;2023-08-21T13:41:52;26.50;92.90
65692;DHT22;52411;52.716;6.696;2023-08-21T13:44:17;26.60;93.20
65692;DHT22;52411;52.716;6.696;2023-08-21T13:46:43;26.70;93.70
65692;DHT22;52411;52.716;6.696;2023-08-21T13:49:09;27.00;93.60
65692;DHT22;52411;52.716;6.696;2023-08-21T13:51:34;27.00;93.10
65692;DHT22;52411;52.716;6.696;2023-08-21T13:54:00;27.10;92.30
65692;DHT22;52411;52.716;6.696;2023-08-21T13:56:26;27.30;92.40
65692;DHT22;52411;52.716;6.696;2023-08-21T13:58:52;27.20;92.20
65692;DHT22;52411;52.716;6.696;2023-08-21T14:01:17;27.30;91.70
65692;DHT22;52411;52.716;6.696;2023-08-21T14:03:43;27.30;91.70
65692;DHT22;52411;52.716;6.696;2023-08-21T14:06:08;27.40;92.00
65692;DHT22;52411;52.716;6.696;2023-08-21T14:08:37;27.50;92.60
65692;DHT22;52411;52.716;6.696;2023-08-21T14:11:03;27.70;92.60
65692;DHT22;52411;52.716;6.696;2023-08-21T14:13:28;27.80;92.80
65692;DHT22;52411;52.716;6.696;2023-08-21T14:15:54;27.90;92.50
65692;DHT22;52411;52.716;6.696;2023-08-21T14:18:20;27.80;91.80
65692;DHT22;52411;52.716;6.696;2023-08-21T14:20:45;27.70;91.80
65692;DHT22;52411;52.716;6.696;2023-08-21T14:23:11;27.60;91.80
65692;DHT22;52411;52.716;6.696;2023-08-21T14:25:37;27.50;91.80
65692;DHT22;52411;52.716;6.696;2023-08-21T14:28:03;27.60;92.40
65692;DHT22;52411;52.716;6.696;2023-08-21T14:30:29;27.60;91.30
65692;DHT22;52411;52.716;6.696;2023-08-21T14:32:55;27.50;90.10
65692;DHT22;52411;52.716;6.696;2023-08-21T14:35:20;27.60;90.20
65692;DHT22;52411;52.716;6.696;2023-08-21T14:37:46;27.60;89.00
65692;DHT22;52411;52.716;6.696;2023-08-21T14:40:12;27.70;90.00
65692;DHT22;52411;52.716;6.696;2023-08-21T14:42:38;27.60;87.90
65692;DHT22;52411;52.716;6.696;2023-08-21T14:45:04;27.50;87.20
65692;DHT22;52411;52.716;6.696;2023-08-21T14:47:31;27.60;86.20
65692;DHT22;52411;52.716;6.696;2023-08-21T14:49:56;27.70;87.40
65692;DHT22;52411;52.716;6.696;2023-08-21T14:52:23;27.60;87.00
65692;DHT22;52411;52.716;6.696;2023-08-21T14:54:51;27.80;88.30
65692;DHT22;52411;52.716;6.696;2023-08-21T14:57:16;27.80;84.20
65692;DHT22;52411;52.716;6.696;2023-08-21T14:59:42;27.90;85.70
65692;DHT22;52411;52.716;6.696;2023-08-21T15:02:08;28.00;85.60
65692;DHT22;52411;52.716;6.696;2023-08-21T15:04:33;28.30;86.70
65692;DHT22;52411;52.716;6.696;2023-08-21T15:06:59;28.50;86.80
65692;DHT22;52411;52.716;6.696;2023-08-21T15:09:24;29.00;86.50
65692;DHT22;52411;52.716;6.696;2023-08-21T15:11:50;29.40;82.70
65692;DHT22;52411;52.716;6.696;2023-08-21T15:14:15;29.80;79.60
65692;DHT22;52411;52.716;6.696;2023-08-21T15:16:41;30.10;78.20
65692;DHT22;52411;52.716;6.696;2023-08-21T15:19:07;30.10;76.90
65692;DHT22;52411;52.716;6.696;2023-08-21T15:21:33;30.30;75.60
65692;DHT22;52411;52.716;6.696;2023-08-21T15:23:58;30.80;73.70
65692;DHT22;52411;52.716;6.696;2023-08-21T15:26:25;31.30;70.80
65692;DHT22;52411;52.716;6.696;2023-08-21T15:28:51;31.30;69.60
65692;DHT22;52411;52.716;6.696;2023-08-21T15:31:16;31.50;69.30
65692;DHT22;52411;52.716;6.696;2023-08-21T15:33:42;31.50;68.20
65692;DHT22;52411;52.716;6.696;2023-08-21T15:36:08;31.50;67.00
65692;DHT22;52411;52.716;6.696;2023-08-21T15:38:33;31.50;65.80
65692;DHT22;52411;52.716;6.696;2023-08-21T15:40:59;31.70;65.90
65692;DHT22;52411;52.716;6.696;2023-08-21T15:43:24;31.70;65.20
65692;DHT22;52411;52.716;6.696;2023-08-21T15:45:51;31.80;64.60
65692;DHT22;52411;52.716;6.696;2023-08-21T15:48:17;32.20;63.30
65692;DHT22;52411;52.716;6.696;2023-08-21T15:50:42;32.60;63.00
65692;DHT22;52411;52.716;6.696;2023-08-21T15:53:08;32.80;62.40
65692;DHT22;52411;52.716;6.696;2023-08-21T15:55:33;33.00;62.30
65692;DHT22;52411;52.716;6.696;2023-08-21T15:57:59;33.20;62.10